sensor_id;sensor_type;location;lat;lon;timestamp;P1;durP1;ratioP1;P2;durP2;ratioP2
21424;SDS011;10873;51.132;16.848;2022-07-22T00:00:49;7.82;;;6.72;;
21424;SDS011;10873;51.132;16.848;2022-07-22T00:10:49;7.30;;;6.60;;
21424;SDS011;10873;51.132;16.848;2022-07-22T00:13:16;7.05;;;6.35;;
21424;SDS011;10873;51.132;16.848;2022-07-22T00:18:57;8.10;;;7.30;;
21424;SDS011;10873;51.132;16.848;2022-07-22T00:21:23;7.90;;;6.82;;
21424;SDS011;10873;51.132;16.848;2022-07-22T00:23:49;7.75;;;6.95;;
21424;SDS011;10873;51.132;16.848;2022-07-22T00:26:16;7.38;;;6.50;;
21424;SDS011;10873;51.132;16.848;2022-07-22T00:28:42;7.28;;;6.57;;
21424;SDS011;10873;51.132;16.848;2022-07-22T00:31:09;7.40;;;6.47;;
21424;SDS011;10873;51.132;16.848;2022-07-22T00:33:36;7.80;;;6.70;;
21424;SDS011;10873;51.132;16.848;2022-07-22T00:36:04;7.85;;;6.63;;
21424;SDS011;10873;51.132;16.848;2022-07-22T00:38:31;7.22;;;6.53;;
21424;SDS011;10873;51.132;16.848;2022-07-22T00:41:02;9.00;;;6.20;;
21424;SDS011;10873;51.132;16.848;2022-07-22T00:43:47;7.17;;;6.40;;
21424;SDS011;10873;51.132;16.848;2022-07-22T00:46:15;7.18;;;6.47;;
21424;SDS011;10873;51.132;16.848;2022-07-22T00:48:41;6.80;;;6.20;;
21424;SDS011;10873;51.132;16.848;2022-07-22T00:51:08;8.98;;;6.32;;
21424;SDS011;10873;51.132;16.848;2022-07-22T00:53:34;7.80;;;6.63;;
21424;SDS011;10873;51.132;16.848;2022-07-22T00:56:01;7.32;;;6.63;;
21424;SDS011;10873;51.132;16.848;2022-07-22T00:58:27;7.70;;;6.78;;
21424;SDS011;10873;51.132;16.848;2022-07-22T01:00:53;7.40;;;6.57;;
21424;SDS011;10873;51.132;16.848;2022-07-22T01:03:20;8.23;;;6.10;;
21424;SDS011;10873;51.132;16.848;2022-07-22T01:05:46;10.32;;;6.95;;
21424;SDS011;10873;51.132;16.848;2022-07-22T01:08:13;6.47;;;5.88;;
21424;SDS011;10873;51.132;16.848;2022-07-22T01:10:40;6.57;;;5.97;;
21424;SDS011;10873;51.132;16.848;2022-07-22T01:13:06;7.03;;;6.32;;
21424;SDS011;10873;51.132;16.848;2022-07-22T01:15:32;6.75;;;6.05;;
21424;SDS011;10873;51.132;16.848;2022-07-22T01:17:59;8.85;;;6.30;;
21424;SDS011;10873;51.132;16.848;2022-07-22T01:20:26;7.13;;;6.25;;
21424;SDS011;10873;51.132;16.848;2022-07-22T01:22:53;6.63;;;5.97;;
21424;SDS011;10873;51.132;16.848;2022-07-22T01:25:19;7.80;;;5.93;;
21424;SDS011;10873;51.132;16.848;2022-07-22T01:27:45;8.35;;;5.97;;
21424;SDS011;10873;51.132;16.848;2022-07-22T01:30:11;7.28;;;6.07;;
21424;SDS011;10873;51.132;16.848;2022-07-22T01:32:38;6.75;;;5.95;;
21424;SDS011;10873;51.132;16.848;2022-07-22T01:35:04;6.40;;;5.80;;
21424;SDS011;10873;51.132;16.848;2022-07-22T01:37:32;6.93;;;6.32;;
21424;SDS011;10873;51.132;16.848;2022-07-22T01:39:58;8.57;;;6.47;;
21424;SDS011;10873;51.132;16.848;2022-07-22T01:42:25;6.25;;;5.65;;
21424;SDS011;10873;51.132;16.848;2022-07-22T01:44:51;7.82;;;6.03;;
21424;SDS011;10873;51.132;16.848;2022-07-22T01:47:17;6.85;;;6.10;;
21424;SDS011;10873;51.132;16.848;2022-07-22T01:49:43;6.30;;;5.65;;
21424;SDS011;10873;51.132;16.848;2022-07-22T01:52:10;7.00;;;5.93;;
21424;SDS011;10873;51.132;16.848;2022-07-22T01:54:37;7.15;;;6.45;;
21424;SDS011;10873;51.132;16.848;2022-07-22T01:57:03;7.72;;;6.20;;
21424;SDS011;10873;51.132;16.848;2022-07-22T01:59:29;7.30;;;6.28;;
21424;SDS011;10873;51.132;16.848;2022-07-22T02:01:55;6.72;;;6.05;;
21424;SDS011;10873;51.132;16.848;2022-07-22T02:04:21;6.55;;;5.90;;
21424;SDS011;10873;51.132;16.848;2022-07-22T02:06:47;7.65;;;6.25;;
21424;SDS011;10873;51.132;16.848;2022-07-22T02:09:14;10.05;;;7.03;;
21424;SDS011;10873;51.132;16.848;2022-07-22T02:11:41;6.43;;;5.72;;
21424;SDS011;10873;51.132;16.848;2022-07-22T02:14:07;6.47;;;5.63;;
21424;SDS011;10873;51.132;16.848;2022-07-22T02:16:33;7.18;;;6.35;;
21424;SDS011;10873;51.132;16.848;2022-07-22T02:18:59;8.10;;;5.93;;
21424;SDS011;10873;51.132;16.848;2022-07-22T02:21:26;7.15;;;6.03;;
21424;SDS011;10873;51.132;16.848;2022-07-22T02:23:52;7.20;;;6.13;;
21424;SDS011;10873;51.132;16.848;2022-07-22T02:26:18;8.45;;;5.90;;
21424;SDS011;10873;51.132;16.848;2022-07-22T02:28:46;6.78;;;5.93;;
21424;SDS011;10873;51.132;16.848;2022-07-22T02:31:12;6.57;;;5.72;;
21424;SDS011;10873;51.132;16.848;2022-07-22T02:33:38;7.97;;;5.93;;
21424;SDS011;10873;51.132;16.848;2022-07-22T02:36:05;6.82;;;6.15;;
21424;SDS011;10873;51.132;16.848;2022-07-22T02:38:31;6.90;;;6.20;;
21424;SDS011;10873;51.132;16.848;2022-07-22T02:40:57;8.43;;;6.05;;
21424;SDS011;10873;51.132;16.848;2022-07-22T02:43:24;7.00;;;6.28;;
21424;SDS011;10873;51.132;16.848;2022-07-22T02:45:51;6.88;;;6.18;;
21424;SDS011;10873;51.132;16.848;2022-07-22T02:48:17;6.72;;;6.03;;
21424;SDS011;10873;51.132;16.848;2022-07-22T02:50:46;7.80;;;6.80;;
21424;SDS011;10873;51.132;16.848;2022-07-22T02:53:12;6.82;;;6.13;;
21424;SDS011;10873;51.132;16.848;2022-07-22T02:55:38;6.63;;;5.65;;
21424;SDS011;10873;51.132;16.848;2022-07-22T02:58:05;8.52;;;6.82;;
21424;SDS011;10873;51.132;16.848;2022-07-22T03:00:32;9.25;;;6.25;;
21424;SDS011;10873;51.132;16.848;2022-07-22T03:02:59;8.38;;;6.35;;
21424;SDS011;10873;51.132;16.848;2022-07-22T03:05:25;7.10;;;6.40;;
21424;SDS011;10873;51.132;16.848;2022-07-22T03:07:51;9.38;;;6.57;;
21424;SDS011;10873;51.132;16.848;2022-07-22T03:10:17;7.38;;;6.35;;
21424;SDS011;10873;51.132;16.848;2022-07-22T03:12:44;7.15;;;6.35;;
21424;SDS011;10873;51.132;16.848;2022-07-22T03:15:10;9.23;;;6.43;;
21424;SDS011;10873;51.132;16.848;2022-07-22T03:17:36;7.45;;;6.38;;
21424;SDS011;10873;51.132;16.848;2022-07-22T03:20:05;9.23;;;6.90;;
21424;SDS011;10873;51.132;16.848;2022-07-22T03:22:32;9.73;;;6.55;;
21424;SDS011;10873;51.132;16.848;2022-07-22T03:24:58;7.43;;;6.63;;
21424;SDS011;10873;51.132;16.848;2022-07-22T03:27:24;10.10;;;6.20;;
21424;SDS011;10873;51.132;16.848;2022-07-22T03:29:50;9.05;;;5.95;;
21424;SDS011;10873;51.132;16.848;2022-07-22T03:32:16;7.18;;;6.20;;
21424;SDS011;10873;51.132;16.848;2022-07-22T03:34:43;8.35;;;6.00;;
21424;SDS011;10873;51.132;16.848;2022-07-22T03:37:16;7.88;;;6.70;;
21424;SDS011;10873;51.132;16.848;2022-07-22T03:39:42;8.43;;;6.75;;
21424;SDS011;10873;51.132;16.848;2022-07-22T03:42:08;7.97;;;6.70;;
21424;SDS011;10873;51.132;16.848;2022-07-22T03:44:34;9.38;;;6.50;;
21424;SDS011;10873;51.132;16.848;2022-07-22T03:47:00;8.43;;;6.85;;
21424;SDS011;10873;51.132;16.848;2022-07-22T03:49:27;8.27;;;6.68;;
21424;SDS011;10873;51.132;16.848;2022-07-22T03:51:54;7.97;;;6.50;;
21424;SDS011;10873;51.132;16.848;2022-07-22T03:54:22;8.57;;;6.57;;
21424;SDS011;10873;51.132;16.848;2022-07-22T03:56:48;7.45;;;6.63;;
21424;SDS011;10873;51.132;16.848;2022-07-22T03:59:14;7.45;;;6.38;;
21424;SDS011;10873;51.132;16.848;2022-07-22T04:01:40;7.32;;;6.63;;
21424;SDS011;10873;51.132;16.848;2022-07-22T04:04:07;7.05;;;6.35;;
21424;SDS011;10873;51.132;16.848;2022-07-22T04:06:33;9.05;;;6.75;;
21424;SDS011;10873;51.132;16.848;2022-07-22T04:08:59;10.65;;;7.05;;
21424;SDS011;10873;51.132;16.848;2022-07-22T04:11:27;10.82;;;6.72;;
21424;SDS011;10873;51.132;16.848;2022-07-22T04:13:54;13.15;;;6.82;;
21424;SDS011;10873;51.132;16.848;2022-07-22T04:16:20;12.75;;;7.35;;
21424;SDS011;10873;51.132;16.848;2022-07-22T04:18:46;11.18;;;7.38;;
21424;SDS011;10873;51.132;16.848;2022-07-22T04:21:12;11.65;;;7.13;;
21424;SDS011;10873;51.132;16.848;2022-07-22T04:23:38;8.45;;;7.07;;
21424;SDS011;10873;51.132;16.848;2022-07-22T04:26:05;10.55;;;7.05;;
21424;SDS011;10873;51.132;16.848;2022-07-22T04:28:33;10.20;;;7.35;;
21424;SDS011;10873;51.132;16.848;2022-07-22T04:31:00;21.27;;;7.22;;
21424;SDS011;10873;51.132;16.848;2022-07-22T04:33:26;11.70;;;7.28;;
21424;SDS011;10873;51.132;16.848;2022-07-22T04:35:52;14.38;;;7.80;;
21424;SDS011;10873;51.132;16.848;2022-07-22T04:38:18;13.05;;;8.10;;
21424;SDS011;10873;51.132;16.848;2022-07-22T04:40:45;11.57;;;7.55;;
21424;SDS011;10873;51.132;16.848;2022-07-22T04:43:11;13.35;;;7.75;;
21424;SDS011;10873;51.132;16.848;2022-07-22T04:45:38;16.17;;;7.30;;
21424;SDS011;10873;51.132;16.848;2022-07-22T04:48:05;12.10;;;8.07;;
21424;SDS011;10873;51.132;16.848;2022-07-22T04:50:31;12.52;;;7.55;;
21424;SDS011;10873;51.132;16.848;2022-07-22T04:52:57;13.40;;;7.18;;
21424;SDS011;10873;51.132;16.848;2022-07-22T04:55:23;10.05;;;7.22;;
21424;SDS011;10873;51.132;16.848;2022-07-22T04:57:49;11.55;;;7.30;;
21424;SDS011;10873;51.132;16.848;2022-07-22T05:00:15;12.20;;;7.20;;
21424;SDS011;10873;51.132;16.848;2022-07-22T05:02:43;13.98;;;7.22;;
21424;SDS011;10873;51.132;16.848;2022-07-22T05:05:09;17.08;;;7.85;;
21424;SDS011;10873;51.132;16.848;2022-07-22T05:07:36;15.05;;;8.32;;
21424;SDS011;10873;51.132;16.848;2022-07-22T05:10:02;16.13;;;7.35;;
21424;SDS011;10873;51.132;16.848;2022-07-22T05:12:29;13.00;;;7.38;;
21424;SDS011;10873;51.132;16.848;2022-07-22T05:14:56;12.45;;;7.63;;
21424;SDS011;10873;51.132;16.848;2022-07-22T05:17:22;9.20;;;7.22;;
21424;SDS011;10873;51.132;16.848;2022-07-22T05:19:49;10.93;;;7.00;;
21424;SDS011;10873;51.132;16.848;2022-07-22T05:22:15;9.98;;;7.00;;
21424;SDS011;10873;51.132;16.848;2022-07-22T05:24:42;10.80;;;7.15;;
21424;SDS011;10873;51.132;16.848;2022-07-22T05:27:08;10.32;;;7.20;;
21424;SDS011;10873;51.132;16.848;2022-07-22T05:29:34;13.65;;;7.72;;
21424;SDS011;10873;51.132;16.848;2022-07-22T05:32:00;13.25;;;7.68;;
21424;SDS011;10873;51.132;16.848;2022-07-22T05:34:26;28.92;;;8.23;;
21424;SDS011;10873;51.132;16.848;2022-07-22T05:36:53;17.38;;;7.50;;
21424;SDS011;10873;51.132;16.848;2022-07-22T05:39:20;15.82;;;7.70;;
21424;SDS011;10873;51.132;16.848;2022-07-22T05:41:46;19.63;;;8.40;;
21424;SDS011;10873;51.132;16.848;2022-07-22T05:44:12;14.02;;;7.32;;
21424;SDS011;10873;51.132;16.848;2022-07-22T05:46:39;12.38;;;8.02;;
21424;SDS011;10873;51.132;16.848;2022-07-22T05:49:05;11.75;;;6.75;;
21424;SDS011;10873;51.132;16.848;2022-07-22T05:51:31;13.32;;;7.60;;
21424;SDS011;10873;51.132;16.848;2022-07-22T05:54:01;10.65;;;7.57;;
21424;SDS011;10873;51.132;16.848;2022-07-22T05:56:27;10.68;;;7.78;;
21424;SDS011;10873;51.132;16.848;2022-07-22T05:58:53;15.63;;;8.00;;
21424;SDS011;10873;51.132;16.848;2022-07-22T06:01:21;13.07;;;8.10;;
21424;SDS011;10873;51.132;16.848;2022-07-22T06:03:47;10.07;;;7.43;;
21424;SDS011;10873;51.132;16.848;2022-07-22T06:06:14;10.60;;;8.05;;
21424;SDS011;10873;51.132;16.848;2022-07-22T06:08:40;11.88;;;7.70;;
21424;SDS011;10873;51.132;16.848;2022-07-22T06:11:07;11.45;;;7.88;;
21424;SDS011;10873;51.132;16.848;2022-07-22T06:13:34;13.70;;;8.27;;
21424;SDS011;10873;51.132;16.848;2022-07-22T06:16:00;11.85;;;7.65;;
21424;SDS011;10873;51.132;16.848;2022-07-22T06:18:26;11.98;;;8.07;;
21424;SDS011;10873;51.132;16.848;2022-07-22T06:20:53;10.32;;;7.97;;
21424;SDS011;10873;51.132;16.848;2022-07-22T06:23:19;13.85;;;8.10;;
21424;SDS011;10873;51.132;16.848;2022-07-22T06:25:45;11.50;;;7.63;;
21424;SDS011;10873;51.132;16.848;2022-07-22T06:28:13;10.32;;;7.68;;
21424;SDS011;10873;51.132;16.848;2022-07-22T06:30:39;10.90;;;8.10;;
21424;SDS011;10873;51.132;16.848;2022-07-22T06:33:05;10.32;;;7.65;;
21424;SDS011;10873;51.132;16.848;2022-07-22T06:35:32;14.60;;;7.63;;
21424;SDS011;10873;51.132;16.848;2022-07-22T06:37:58;13.88;;;9.50;;
21424;SDS011;10873;51.132;16.848;2022-07-22T06:40:24;9.50;;;8.20;;
21424;SDS011;10873;51.132;16.848;2022-07-22T06:42:50;12.13;;;8.35;;
21424;SDS011;10873;51.132;16.848;2022-07-22T06:45:18;12.63;;;8.80;;
21424;SDS011;10873;51.132;16.848;2022-07-22T06:47:44;11.23;;;8.00;;
21424;SDS011;10873;51.132;16.848;2022-07-22T06:50:10;15.82;;;8.73;;
21424;SDS011;10873;51.132;16.848;2022-07-22T06:52:37;13.77;;;9.70;;
21424;SDS011;10873;51.132;16.848;2022-07-22T06:55:05;13.50;;;9.50;;
21424;SDS011;10873;51.132;16.848;2022-07-22T06:57:32;10.55;;;8.98;;
21424;SDS011;10873;51.132;16.848;2022-07-22T06:59:58;14.68;;;8.82;;
21424;SDS011;10873;51.132;16.848;2022-07-22T07:02:25;10.07;;;8.23;;
21424;SDS011;10873;51.132;16.848;2022-07-22T07:04:51;14.75;;;9.70;;
21424;SDS011;10873;51.132;16.848;2022-07-22T07:07:18;13.27;;;9.30;;
21424;SDS011;10873;51.132;16.848;2022-07-22T07:09:43;11.50;;;9.10;;
21424;SDS011;10873;51.132;16.848;2022-07-22T07:12:11;14.50;;;8.77;;
21424;SDS011;10873;51.132;16.848;2022-07-22T07:14:37;11.52;;;8.98;;
21424;SDS011;10873;51.132;16.848;2022-07-22T07:17:03;10.65;;;8.73;;
21424;SDS011;10873;51.132;16.848;2022-07-22T07:19:31;9.88;;;8.50;;
21424;SDS011;10873;51.132;16.848;2022-07-22T07:21:57;12.52;;;9.40;;
21424;SDS011;10873;51.132;16.848;2022-07-22T07:24:23;16.80;;;12.38;;
21424;SDS011;10873;51.132;16.848;2022-07-22T07:26:49;18.23;;;14.30;;
21424;SDS011;10873;51.132;16.848;2022-07-22T07:29:15;21.67;;;15.70;;
21424;SDS011;10873;51.132;16.848;2022-07-22T07:31:41;14.45;;;11.95;;
21424;SDS011;10873;51.132;16.848;2022-07-22T07:34:07;23.00;;;11.18;;
21424;SDS011;10873;51.132;16.848;2022-07-22T07:36:35;19.48;;;10.35;;
21424;SDS011;10873;51.132;16.848;2022-07-22T07:39:01;13.88;;;9.88;;
21424;SDS011;10873;51.132;16.848;2022-07-22T07:41:27;16.15;;;9.20;;
21424;SDS011;10873;51.132;16.848;2022-07-22T07:43:54;12.70;;;8.77;;
21424;SDS011;10873;51.132;16.848;2022-07-22T07:46:20;16.08;;;9.35;;
21424;SDS011;10873;51.132;16.848;2022-07-22T07:48:46;12.52;;;8.30;;
21424;SDS011;10873;51.132;16.848;2022-07-22T07:51:13;17.58;;;8.43;;
21424;SDS011;10873;51.132;16.848;2022-07-22T07:53:41;10.00;;;7.85;;
21424;SDS011;10873;51.132;16.848;2022-07-22T07:56:07;11.25;;;7.80;;
21424;SDS011;10873;51.132;16.848;2022-07-22T07:58:33;11.18;;;7.50;;
21424;SDS011;10873;51.132;16.848;2022-07-22T08:00:59;10.70;;;7.40;;
21424;SDS011;10873;51.132;16.848;2022-07-22T08:03:25;10.38;;;7.65;;
21424;SDS011;10873;51.132;16.848;2022-07-22T08:05:52;11.98;;;6.93;;
21424;SDS011;10873;51.132;16.848;2022-07-22T08:08:18;9.93;;;6.80;;
21424;SDS011;10873;51.132;16.848;2022-07-22T08:10:46;10.70;;;7.22;;
21424;SDS011;10873;51.132;16.848;2022-07-22T08:13:12;9.13;;;7.22;;
21424;SDS011;10873;51.132;16.848;2022-07-22T08:15:38;10.20;;;7.00;;
21424;SDS011;10873;51.132;16.848;2022-07-22T08:18:06;10.05;;;7.25;;
21424;SDS011;10873;51.132;16.848;2022-07-22T08:20:33;13.68;;;7.30;;
21424;SDS011;10873;51.132;16.848;2022-07-22T08:22:59;11.80;;;7.38;;
21424;SDS011;10873;51.132;16.848;2022-07-22T08:25:25;12.07;;;7.28;;
21424;SDS011;10873;51.132;16.848;2022-07-22T08:27:53;10.48;;;6.38;;
21424;SDS011;10873;51.132;16.848;2022-07-22T08:30:20;11.85;;;6.95;;
21424;SDS011;10873;51.132;16.848;2022-07-22T08:32:48;12.80;;;7.03;;
21424;SDS011;10873;51.132;16.848;2022-07-22T08:35:15;11.25;;;6.78;;
21424;SDS011;10873;51.132;16.848;2022-07-22T08:37:41;10.00;;;7.75;;
21424;SDS011;10873;51.132;16.848;2022-07-22T08:40:08;11.80;;;7.53;;
21424;SDS011;10873;51.132;16.848;2022-07-22T08:42:36;11.45;;;7.10;;
21424;SDS011;10873;51.132;16.848;2022-07-22T08:45:04;10.32;;;7.40;;
21424;SDS011;10873;51.132;16.848;2022-07-22T08:47:31;10.48;;;7.10;;
21424;SDS011;10873;51.132;16.848;2022-07-22T08:49:58;10.35;;;7.38;;
21424;SDS011;10873;51.132;16.848;2022-07-22T08:52:24;9.18;;;7.15;;
21424;SDS011;10873;51.132;16.848;2022-07-22T08:54:50;10.52;;;7.40;;
21424;SDS011;10873;51.132;16.848;2022-07-22T08:57:17;8.50;;;7.00;;
21424;SDS011;10873;51.132;16.848;2022-07-22T08:59:50;9.50;;;7.10;;
21424;SDS011;10873;51.132;16.848;2022-07-22T09:02:20;13.63;;;7.78;;
21424;SDS011;10873;51.132;16.848;2022-07-22T09:04:53;9.95;;;7.35;;
21424;SDS011;10873;51.132;16.848;2022-07-22T09:07:24;12.98;;;7.07;;
21424;SDS011;10873;51.132;16.848;2022-07-22T09:09:52;11.63;;;7.28;;
21424;SDS011;10873;51.132;16.848;2022-07-22T09:12:18;9.57;;;7.30;;
21424;SDS011;10873;51.132;16.848;2022-07-22T09:14:45;13.25;;;7.38;;
21424;SDS011;10873;51.132;16.848;2022-07-22T09:17:23;10.32;;;7.35;;
21424;SDS011;10873;51.132;16.848;2022-07-22T09:19:53;10.63;;;7.43;;
21424;SDS011;10873;51.132;16.848;2022-07-22T09:22:33;22.27;;;13.18;;
21424;SDS011;10873;51.132;16.848;2022-07-22T09:25:16;19.30;;;14.00;;
21424;SDS011;10873;51.132;16.848;2022-07-22T09:27:45;23.05;;;15.68;;
21424;SDS011;10873;51.132;16.848;2022-07-22T09:30:12;19.13;;;13.45;;
21424;SDS011;10873;51.132;16.848;2022-07-22T09:32:41;20.50;;;13.10;;
21424;SDS011;10873;51.132;16.848;2022-07-22T09:35:08;19.02;;;11.88;;
21424;SDS011;10873;51.132;16.848;2022-07-22T09:37:37;18.15;;;11.20;;
21424;SDS011;10873;51.132;16.848;2022-07-22T09:40:12;13.20;;;9.98;;
21424;SDS011;10873;51.132;16.848;2022-07-22T09:42:43;16.63;;;9.45;;
21424;SDS011;10873;51.132;16.848;2022-07-22T09:45:11;13.65;;;8.82;;
21424;SDS011;10873;51.132;16.848;2022-07-22T09:47:38;10.73;;;8.90;;
21424;SDS011;10873;51.132;16.848;2022-07-22T09:52:52;10.98;;;8.48;;
21424;SDS011;10873;51.132;16.848;2022-07-22T09:55:21;9.05;;;7.45;;
21424;SDS011;10873;51.132;16.848;2022-07-22T09:57:48;8.82;;;7.70;;
21424;SDS011;10873;51.132;16.848;2022-07-22T10:00:16;9.43;;;7.88;;
21424;SDS011;10873;51.132;16.848;2022-07-22T10:02:49;8.88;;;7.55;;
21424;SDS011;10873;51.132;16.848;2022-07-22T10:05:17;8.25;;;7.45;;
21424;SDS011;10873;51.132;16.848;2022-07-22T10:07:46;8.45;;;7.65;;
21424;SDS011;10873;51.132;16.848;2022-07-22T10:10:13;9.13;;;7.75;;
21424;SDS011;10873;51.132;16.848;2022-07-22T10:12:41;9.68;;;7.57;;
21424;SDS011;10873;51.132;16.848;2022-07-22T10:15:10;7.93;;;7.13;;
21424;SDS011;10873;51.132;16.848;2022-07-22T10:17:38;7.55;;;6.80;;
21424;SDS011;10873;51.132;16.848;2022-07-22T10:20:23;8.68;;;7.20;;
21424;SDS011;10873;51.132;16.848;2022-07-22T10:22:56;7.15;;;6.45;;
21424;SDS011;10873;51.132;16.848;2022-07-22T10:25:26;7.53;;;6.82;;
21424;SDS011;10873;51.132;16.848;2022-07-22T10:27:57;8.32;;;7.03;;
21424;SDS011;10873;51.132;16.848;2022-07-22T10:30:26;7.45;;;6.75;;
21424;SDS011;10873;51.132;16.848;2022-07-22T10:33:01;7.80;;;7.00;;
21424;SDS011;10873;51.132;16.848;2022-07-22T10:35:34;8.90;;;6.80;;
21424;SDS011;10873;51.132;16.848;2022-07-22T10:38:02;6.93;;;6.30;;
21424;SDS011;10873;51.132;16.848;2022-07-22T10:40:30;9.48;;;6.60;;
21424;SDS011;10873;51.132;16.848;2022-07-22T10:43:10;8.70;;;6.53;;
21424;SDS011;10873;51.132;16.848;2022-07-22T10:45:42;7.43;;;6.68;;
21424;SDS011;10873;51.132;16.848;2022-07-22T10:48:14;7.18;;;6.38;;
21424;SDS011;10873;51.132;16.848;2022-07-22T10:50:44;6.95;;;6.35;;
21424;SDS011;10873;51.132;16.848;2022-07-22T10:53:13;7.53;;;6.65;;
21424;SDS011;10873;51.132;16.848;2022-07-22T10:58:42;7.28;;;6.63;;
21424;SDS011;10873;51.132;16.848;2022-07-22T11:01:10;8.10;;;7.07;;
21424;SDS011;10873;51.132;16.848;2022-07-22T11:03:39;14.80;;;6.97;;
21424;SDS011;10873;51.132;16.848;2022-07-22T11:06:16;18.98;;;6.72;;
21424;SDS011;10873;51.132;16.848;2022-07-22T11:08:45;11.43;;;6.80;;
21424;SDS011;10873;51.132;16.848;2022-07-22T11:11:11;8.95;;;7.03;;
21424;SDS011;10873;51.132;16.848;2022-07-22T11:13:38;12.20;;;7.28;;
21424;SDS011;10873;51.132;16.848;2022-07-22T11:16:18;11.82;;;6.85;;
21424;SDS011;10873;51.132;16.848;2022-07-22T11:18:46;8.52;;;6.65;;
21424;SDS011;10873;51.132;16.848;2022-07-22T11:21:16;8.30;;;6.78;;
21424;SDS011;10873;51.132;16.848;2022-07-22T11:23:43;13.05;;;7.32;;
21424;SDS011;10873;51.132;16.848;2022-07-22T11:26:13;7.03;;;6.32;;
21424;SDS011;10873;51.132;16.848;2022-07-22T11:28:41;7.97;;;6.65;;
21424;SDS011;10873;51.132;16.848;2022-07-22T11:31:08;10.88;;;6.53;;
21424;SDS011;10873;51.132;16.848;2022-07-22T11:33:38;7.55;;;6.60;;
21424;SDS011;10873;51.132;16.848;2022-07-22T11:36:06;7.55;;;6.30;;
21424;SDS011;10873;51.132;16.848;2022-07-22T11:38:43;7.20;;;6.43;;
21424;SDS011;10873;51.132;16.848;2022-07-22T11:41:10;6.63;;;5.93;;
21424;SDS011;10873;51.132;16.848;2022-07-22T11:43:39;6.78;;;6.13;;
21424;SDS011;10873;51.132;16.848;2022-07-22T11:46:06;8.57;;;6.22;;
21424;SDS011;10873;51.132;16.848;2022-07-22T11:48:33;6.60;;;5.90;;
21424;SDS011;10873;51.132;16.848;2022-07-22T11:51:00;11.98;;;7.75;;
21424;SDS011;10873;51.132;16.848;2022-07-22T11:53:26;9.52;;;6.25;;
21424;SDS011;10873;51.132;16.848;2022-07-22T11:55:57;8.80;;;6.65;;
21424;SDS011;10873;51.132;16.848;2022-07-22T11:58:33;9.20;;;6.63;;
21424;SDS011;10873;51.132;16.848;2022-07-22T12:01:00;7.13;;;6.40;;
21424;SDS011;10873;51.132;16.848;2022-07-22T12:03:26;7.53;;;6.72;;
21424;SDS011;10873;51.132;16.848;2022-07-22T12:05:53;6.72;;;6.07;;
21424;SDS011;10873;51.132;16.848;2022-07-22T12:08:20;9.38;;;6.18;;
21424;SDS011;10873;51.132;16.848;2022-07-22T12:10:46;7.10;;;5.47;;
21424;SDS011;10873;51.132;16.848;2022-07-22T12:13:14;7.38;;;5.45;;
21424;SDS011;10873;51.132;16.848;2022-07-22T12:15:40;11.70;;;5.40;;
21424;SDS011;10873;51.132;16.848;2022-07-22T12:18:16;7.25;;;5.43;;
21424;SDS011;10873;51.132;16.848;2022-07-22T12:20:45;9.18;;;5.25;;
21424;SDS011;10873;51.132;16.848;2022-07-22T12:23:11;7.82;;;5.78;;
21424;SDS011;10873;51.132;16.848;2022-07-22T12:25:54;7.93;;;5.63;;
21424;SDS011;10873;51.132;16.848;2022-07-22T12:28:23;7.93;;;5.55;;
21424;SDS011;10873;51.132;16.848;2022-07-22T12:30:50;7.72;;;5.60;;
21424;SDS011;10873;51.132;16.848;2022-07-22T12:33:17;6.25;;;4.97;;
21424;SDS011;10873;51.132;16.848;2022-07-22T12:35:45;9.10;;;5.00;;
21424;SDS011;10873;51.132;16.848;2022-07-22T12:38:23;10.82;;;5.45;;
21424;SDS011;10873;51.132;16.848;2022-07-22T12:40:50;9.55;;;5.75;;
21424;SDS011;10873;51.132;16.848;2022-07-22T12:43:16;8.63;;;5.40;;
21424;SDS011;10873;51.132;16.848;2022-07-22T12:45:43;8.00;;;5.35;;
21424;SDS011;10873;51.132;16.848;2022-07-22T12:48:10;6.68;;;5.05;;
21424;SDS011;10873;51.132;16.848;2022-07-22T12:50:37;8.38;;;5.25;;
21424;SDS011;10873;51.132;16.848;2022-07-22T12:53:05;8.30;;;5.53;;
21424;SDS011;10873;51.132;16.848;2022-07-22T12:55:34;10.18;;;5.10;;
21424;SDS011;10873;51.132;16.848;2022-07-22T12:58:02;11.70;;;5.65;;
21424;SDS011;10873;51.132;16.848;2022-07-22T13:00:30;6.57;;;4.72;;
21424;SDS011;10873;51.132;16.848;2022-07-22T13:02:59;7.45;;;4.75;;
21424;SDS011;10873;51.132;16.848;2022-07-22T13:05:25;10.43;;;5.10;;
21424;SDS011;10873;51.132;16.848;2022-07-22T13:07:52;6.30;;;4.55;;
21424;SDS011;10873;51.132;16.848;2022-07-22T13:10:19;7.35;;;5.28;;
21424;SDS011;10873;51.132;16.848;2022-07-22T13:12:47;7.80;;;5.00;;
21424;SDS011;10873;51.132;16.848;2022-07-22T13:15:13;6.18;;;5.05;;
21424;SDS011;10873;51.132;16.848;2022-07-22T13:17:40;6.05;;;4.85;;
21424;SDS011;10873;51.132;16.848;2022-07-22T13:20:11;7.70;;;5.30;;
21424;SDS011;10873;51.132;16.848;2022-07-22T13:22:38;8.00;;;5.30;;
21424;SDS011;10873;51.132;16.848;2022-07-22T13:25:05;7.68;;;5.15;;
21424;SDS011;10873;51.132;16.848;2022-07-22T13:27:32;7.60;;;4.97;;
21424;SDS011;10873;51.132;16.848;2022-07-22T13:29:58;6.25;;;4.85;;
21424;SDS011;10873;51.132;16.848;2022-07-22T13:32:24;12.02;;;4.97;;
21424;SDS011;10873;51.132;16.848;2022-07-22T13:34:50;8.30;;;4.75;;
21424;SDS011;10873;51.132;16.848;2022-07-22T13:37:18;7.05;;;4.88;;
21424;SDS011;10873;51.132;16.848;2022-07-22T13:39:45;8.18;;;5.35;;
21424;SDS011;10873;51.132;16.848;2022-07-22T13:42:12;7.00;;;5.80;;
21424;SDS011;10873;51.132;16.848;2022-07-22T13:44:38;7.45;;;5.43;;
21424;SDS011;10873;51.132;16.848;2022-07-22T13:47:04;6.95;;;5.32;;
21424;SDS011;10873;51.132;16.848;2022-07-22T13:49:30;9.77;;;4.97;;
21424;SDS011;10873;51.132;16.848;2022-07-22T13:51:57;9.23;;;5.45;;
21424;SDS011;10873;51.132;16.848;2022-07-22T13:54:25;8.20;;;5.28;;
21424;SDS011;10873;51.132;16.848;2022-07-22T13:56:51;25.15;;;5.95;;
21424;SDS011;10873;51.132;16.848;2022-07-22T13:59:17;18.60;;;6.00;;
21424;SDS011;10873;51.132;16.848;2022-07-22T14:01:44;15.07;;;6.20;;
21424;SDS011;10873;51.132;16.848;2022-07-22T14:04:10;9.63;;;6.40;;
21424;SDS011;10873;51.132;16.848;2022-07-22T14:06:36;12.55;;;5.60;;
21424;SDS011;10873;51.132;16.848;2022-07-22T14:09:03;7.38;;;5.93;;
21424;SDS011;10873;51.132;16.848;2022-07-22T14:11:30;12.18;;;5.72;;
21424;SDS011;10873;51.132;16.848;2022-07-22T14:13:57;10.73;;;5.90;;
21424;SDS011;10873;51.132;16.848;2022-07-22T14:16:23;10.15;;;5.15;;
21424;SDS011;10873;51.132;16.848;2022-07-22T14:19:01;6.85;;;5.50;;
21424;SDS011;10873;51.132;16.848;2022-07-22T14:21:30;6.93;;;5.40;;
21424;SDS011;10873;51.132;16.848;2022-07-22T14:23:56;6.32;;;5.60;;
21424;SDS011;10873;51.132;16.848;2022-07-22T14:26:22;7.88;;;5.57;;
21424;SDS011;10873;51.132;16.848;2022-07-22T14:28:50;8.88;;;5.32;;
21424;SDS011;10873;51.132;16.848;2022-07-22T14:31:16;5.78;;;5.20;;
21424;SDS011;10873;51.132;16.848;2022-07-22T14:33:42;8.35;;;5.38;;
21424;SDS011;10873;51.132;16.848;2022-07-22T14:36:08;5.90;;;5.30;;
21424;SDS011;10873;51.132;16.848;2022-07-22T14:38:34;6.38;;;5.68;;
21424;SDS011;10873;51.132;16.848;2022-07-22T14:41:00;6.20;;;5.60;;
21424;SDS011;10873;51.132;16.848;2022-07-22T14:43:27;5.82;;;5.15;;
21424;SDS011;10873;51.132;16.848;2022-07-22T14:45:54;8.88;;;5.70;;